X  Luk Metar data     EKYT Aalborg Airport
Temperatur
5°C Temperatur
3°C Dugpunkt
87% Fugtighed



Vind
11 M/S
24 MPT
39 KM/T
21 KNOB



280°
Vest
Nuværende forhold

Mest skyet Mest skyet
Tryk 1013.92 (hPa) - 29.94 (inHg)
Sigt 6.2 (mil) - 10 (km)
Lufthavn
Lufthavnskode EKYT

Lokation: Aalborg Airport
Afstand: 54 (km)

Metar:
EKYT 070435Z AUTO 28021KT 9999 BKN013/// BKN018/// 05/03 Q1014

Tid: 07-03-2021 05:35 CET